Time;durP1;ratioP1;P1;durP2;ratioP2;P2;SDS_P1;SDS_P2;PMS_P1;PMS_P2;Temp;Humidity;BMP_temperature;BMP_pressure;BME280_temperature;BME280_humidity;BME280_pressure;Samples;Min_cycle;Max_cycle;Signal;HPM_P1;HPM_P2
2022/07/01 00:00:07;;;;;;;16.08;11.73;;;;;;;12.77;100.00;101328.28;4971759;28;20113;-89
2022/07/01 00:02:33;;;;;;;16.42;12.20;;;;;;;12.72;100.00;101312.50;4970693;28;20026;-92
2022/07/01 00:04:58;;;;;;;15.20;11.07;;;;;;;12.64;100.00;101310.22;4970541;28;20054;-91
2022/07/01 00:07:23;;;;;;;16.40;11.40;;;;;;;12.59;100.00;101308.75;4969021;28;20026;-90
2022/07/01 00:09:49;;;;;;;17.15;11.43;;;;;;;12.69;100.00;101312.63;4968756;28;20484;-91
2022/07/01 00:12:14;;;;;;;15.48;11.18;;;;;;;12.68;100.00;101314.44;4971695;28;20038;-92
2022/07/01 00:14:40;;;;;;;14.32;10.45;;;;;;;12.62;100.00;101297.88;4969676;28;20030;-91
2022/07/01 00:17:06;;;;;;;18.02;12.25;;;;;;;12.68;100.00;101305.59;4970552;28;20673;-89
2022/07/01 00:19:31;;;;;;;15.23;10.98;;;;;;;12.59;100.00;101296.25;4968379;28;20062;-88
2022/07/01 00:21:56;;;;;;;16.58;11.77;;;;;;;12.64;100.00;101298.66;4968242;28;20117;-88
2022/07/01 00:24:22;;;;;;;15.18;10.95;;;;;;;12.60;100.00;101294.44;4969078;28;20123;-88
2022/07/01 00:26:47;;;;;;;15.85;11.20;;;;;;;12.65;100.00;101313.75;4967933;28;20054;-89
2022/07/01 00:29:12;;;;;;;15.57;11.93;;;;;;;12.69;100.00;101312.63;4967341;28;20023;-90
2022/07/01 00:31:38;;;;;;;17.38;11.98;;;;;;;12.70;100.00;101299.19;4966515;28;20050;-90
2022/07/01 00:34:03;;;;;;;18.00;12.38;;;;;;;12.64;100.00;101272.81;4968860;28;20039;-89
2022/07/01 00:36:28;;;;;;;21.75;13.25;;;;;;;12.79;100.00;101291.66;4968193;28;20042;-90
2022/07/01 00:38:54;;;;;;;17.50;11.95;;;;;;;12.86;100.00;101299.25;4967997;28;20026;-90
2022/07/01 00:41:19;;;;;;;17.70;12.63;;;;;;;12.77;100.00;101280.19;4969876;28;20118;-91
2022/07/01 00:43:44;;;;;;;14.05;10.85;;;;;;;12.88;100.00;101293.84;4969533;28;20524;-89
2022/07/01 00:46:10;;;;;;;19.05;12.60;;;;;;;12.94;100.00;101290.84;4970648;28;20518;-90
2022/07/01 00:48:36;;;;;;;17.00;12.05;;;;;;;12.98;100.00;101287.06;4965613;28;20046;-92
2022/07/01 00:51:02;;;;;;;16.17;11.95;;;;;;;12.86;100.00;101277.03;4968007;28;20476;-90
2022/07/01 00:53:28;;;;;;;18.90;12.38;;;;;;;12.74;100.00;101275.88;4966748;28;20046;-89
2022/07/01 00:55:53;;;;;;;20.10;13.30;;;;;;;12.80;100.00;101285.38;4968796;28;20058;-91
2022/07/01 00:58:19;;;;;;;18.63;12.95;;;;;;;12.87;100.00;101289.44;4970196;28;20022;-91
2022/07/01 01:00:44;;;;;;;21.70;12.98;;;;;;;12.87;100.00;101292.09;4968207;28;20018;-90
2022/07/01 01:03:11;;;;;;;21.17;13.55;;;;;;;12.81;100.00;101287.97;4968527;28;20035;-90
2022/07/01 01:05:37;;;;;;;25.60;13.70;;;;;;;12.87;100.00;101311.66;4965242;28;20086;-91
2022/07/01 01:08:03;;;;;;;24.42;14.88;;;;;;;12.81;100.00;101316.47;4967878;28;20018;-90
2022/07/01 01:10:30;;;;;;;22.08;13.13;;;;;;;12.71;100.00;101300.09;4970178;28;20037;-89
2022/07/01 01:12:56;;;;;;;26.40;14.25;;;;;;;12.79;100.00;101311.22;4984938;28;20019;-89
2022/07/01 01:15:22;;;;;;;26.05;14.48;;;;;;;12.75;100.00;101312.34;4966904;28;21660;-89
2022/07/01 01:17:47;;;;;;;24.63;14.73;;;;;;;12.76;100.00;101327.41;4967435;28;20449;-90
2022/07/01 01:20:17;;;;;;;27.42;14.82;;;;;;;12.85;100.00;101342.94;4968745;28;20050;-90
2022/07/01 01:22:44;;;;;;;26.50;14.38;;;;;;;12.82;100.00;101345.78;4968163;28;20038;-90
2022/07/01 01:25:09;;;;;;;28.23;15.23;;;;;;;12.82;100.00;101343.09;4972531;28;20361;-91
2022/07/01 01:27:35;;;;;;;26.33;14.88;;;;;;;12.81;100.00;101338.72;4967378;28;20082;-90
2022/07/01 01:30:05;;;;;;;27.27;15.25;;;;;;;12.87;100.00;101338.38;4967901;28;20029;-91
2022/07/01 01:32:31;;;;;;;25.60;14.45;;;;;;;12.82;100.00;101334.22;4966628;28;20030;-92
2022/07/01 01:34:56;;;;;;;26.65;14.35;;;;;;;12.87;100.00;101342.88;4977098;28;20163;-90
2022/07/01 01:37:22;;;;;;;22.67;13.63;;;;;;;12.86;100.00;101330.47;4968073;28;20174;-90
2022/07/01 01:39:47;;;;;;;28.48;15.07;;;;;;;12.88;100.00;101332.13;4967832;28;20035;-91
2022/07/01 01:42:12;;;;;;;24.85;14.30;;;;;;;12.81;100.00;101330.69;4978477;28;20075;-91
2022/07/01 01:44:38;;;;;;;23.83;14.82;;;;;;;12.82;100.00;101344.91;4968281;28;20038;-91
2022/07/01 01:47:04;;;;;;;26.05;15.60;;;;;;;12.85;100.00;101350.97;4971511;28;20035;-91
2022/07/01 01:49:29;;;;;;;26.17;15.43;;;;;;;12.83;100.00;101342.19;4974483;28;20237;-91
2022/07/01 01:51:57;;;;;;;27.35;16.20;;;;;;;12.86;100.00;101336.66;4999352;28;20014;-90
2022/07/01 01:54:23;;;;;;;24.33;15.35;;;;;;;12.83;100.00;101323.50;4992046;28;20023;-90
2022/07/01 01:56:48;;;;;;;23.80;14.35;;;;;;;12.85;100.00;101340.28;4991775;28;20090;-91
2022/07/01 01:59:13;;;;;;;21.27;13.10;;;;;;;12.87;100.00;101332.19;4987083;28;20468;-89
2022/07/01 02:01:39;;;;;;;23.20;14.63;;;;;;;12.88;100.00;101347.28;4986561;28;20632;-91
2022/07/01 02:04:04;;;;;;;25.80;14.07;;;;;;;12.92;100.00;101352.38;4985664;28;20054;-92
2022/07/01 02:06:30;;;;;;;23.55;14.63;;;;;;;12.86;100.00;101336.66;4987707;28;20045;-90
2022/07/01 02:08:55;;;;;;;25.50;14.70;;;;;;;12.88;100.00;101358.84;4974558;28;20180;-91
2022/07/01 02:11:20;;;;;;;26.15;14.63;;;;;;;12.84;100.00;101362.59;4967447;28;20476;-91
2022/07/01 02:13:46;;;;;;;21.90;13.52;;;;;;;12.73;100.00;101346.25;4966852;28;20127;-90
2022/07/01 02:16:11;;;;;;;26.85;14.23;;;;;;;12.76;100.00;101342.59;4983237;28;20030;-89
2022/07/01 02:18:37;;;;;;;20.38;13.43;;;;;;;12.92;100.00;101379.09;4967260;28;20039;-89
2022/07/01 02:21:02;;;;;;;22.38;13.60;;;;;;;12.90;100.00;101385.47;4966145;28;20023;-90
2022/07/01 02:23:29;;;;;;;23.08;14.25;;;;;;;12.88;100.00;101377.53;4993698;28;20035;-90
2022/07/01 02:25:54;;;;;;;21.40;13.20;;;;;;;12.77;100.00;101371.00;4961469;28;20038;-90
2022/07/01 02:28:20;;;;;;;23.55;13.27;;;;;;;12.86;100.00;101373.19;4962658;28;20417;-91
2022/07/01 02:30:45;;;;;;;22.33;14.20;;;;;;;12.87;100.00;101357.06;4964624;28;20045;-90
2022/07/01 02:33:10;;;;;;;20.15;12.32;;;;;;;12.92;100.00;101352.38;4965614;28;20420;-90
2022/07/01 02:35:37;;;;;;;25.98;13.90;;;;;;;12.88;100.00;101345.47;4969459;28;20097;-91
2022/07/01 02:38:04;;;;;;;22.85;14.10;;;;;;;12.85;100.00;101363.47;4968732;28;20026;-90
2022/07/01 02:40:30;;;;;;;25.42;13.98;;;;;;;12.85;100.00;101361.66;4969748;28;20089;-91
2022/07/01 02:42:55;;;;;;;23.05;14.23;;;;;;;12.86;100.00;101349.16;4965573;28;20039;-89
2022/07/01 02:45:21;;;;;;;23.00;13.55;;;;;;;12.85;100.00;101352.78;4968401;28;20507;-90
2022/07/01 02:47:46;;;;;;;25.92;15.20;;;;;;;12.76;100.00;101351.44;4965478;28;20580;-90
2022/07/01 02:50:13;;;;;;;22.45;14.50;;;;;;;12.78;100.00;101354.88;4971621;28;20059;-89
2022/07/01 02:52:41;;;;;;;23.38;14.38;;;;;;;12.69;100.00;101337.53;4968964;28;20031;-91
2022/07/01 02:55:08;;;;;;;22.52;14.48;;;;;;;12.78;100.00;101375.41;4970963;28;20030;-89
2022/07/01 02:57:34;;;;;;;23.33;14.80;;;;;;;12.71;100.00;101377.53;4977812;28;20034;-90
2022/07/01 02:59:59;;;;;;;23.48;14.63;;;;;;;12.70;100.00;101362.44;4979654;28;20105;-89
2022/07/01 03:02:25;;;;;;;23.88;14.77;;;;;;;12.74;100.00;101385.38;4977180;28;20094;-89
2022/07/01 03:04:52;;;;;;;26.90;15.30;;;;;;;12.72;100.00;101381.94;4978195;28;20127;-90
2022/07/01 03:07:18;;;;;;;28.95;15.73;;;;;;;12.73;100.00;101378.31;4967457;28;20027;-90
2022/07/01 03:09:44;;;;;;;27.05;15.20;;;;;;;12.77;100.00;101384.38;4967608;28;20023;-91
2022/07/01 03:12:27;;;;;;;26.02;15.18;;;;;;;12.77;100.00;101390.56;4973177;28;20019;-90
2022/07/01 03:15:12;;;;;;;26.10;14.20;;;;;;;12.85;100.00;101404.41;4971514;28;20042;-92
2022/07/01 03:17:41;;;;;;;26.52;15.18;;;;;;;12.82;100.00;101393.84;4968585;28;20035;-90
2022/07/01 03:20:08;;;;;;;24.08;15.63;;;;;;;12.79;100.00;101386.03;4974631;28;20027;-90
2022/07/01 03:22:34;;;;;;;25.98;15.80;;;;;;;12.80;100.00;101392.22;4977076;28;20039;-90
2022/07/01 03:25:00;;;;;;;23.08;15.02;;;;;;;12.81;100.00;101399.28;4970591;28;20388;-90
2022/07/01 03:27:26;;;;;;;23.08;15.05;;;;;;;12.78;100.00;101394.97;4969699;28;20106;-91
2022/07/01 03:29:52;;;;;;;22.45;14.50;;;;;;;12.79;100.00;101387.81;4970459;28;20086;-90
2022/07/01 03:32:18;;;;;;;25.67;15.13;;;;;;;12.79;100.00;101396.72;4970118;28;20042;-89
2022/07/01 03:34:45;;;;;;;26.15;15.57;;;;;;;12.72;100.00;101395.28;4970389;28;20039;-89
2022/07/01 03:37:13;;;;;;;21.30;13.75;;;;;;;12.77;100.00;101411.06;4970368;28;20069;-90
2022/07/01 03:39:38;;;;;;;24.73;15.27;;;;;;;12.71;100.00;101412.25;4975938;28;20038;-89
2022/07/01 03:42:06;;;;;;;25.20;15.88;;;;;;;12.80;100.00;101422.47;4968215;28;20034;-90
2022/07/01 03:44:32;;;;;;;22.83;15.95;;;;;;;12.70;100.00;101405.16;4970403;28;20257;-90
2022/07/01 03:46:57;;;;;;;23.65;15.20;;;;;;;12.75;100.00;101424.53;4967897;28;20154;-89
2022/07/01 03:49:23;;;;;;;24.00;15.35;;;;;;;12.69;100.00;101424.81;4969333;28;20113;-90
2022/07/01 03:51:49;;;;;;;25.52;16.23;;;;;;;12.71;100.00;101425.63;4962741;28;20026;-89
2022/07/01 03:54:29;;;;;;;25.40;15.80;;;;;;;12.73;100.00;101431.72;4969971;28;20477;-90
2022/07/01 03:57:03;;;;;;;23.48;16.05;;;;;;;12.70;100.00;101439.91;4966382;28;20162;-89
2022/07/01 03:59:30;;;;;;;26.60;16.63;;;;;;;12.67;100.00;101437.41;4966086;28;20672;-88
2022/07/01 04:01:57;;;;;;;26.50;17.73;;;;;;;12.69;100.00;101443.50;4971084;28;20034;-90
2022/07/01 04:04:24;;;;;;;21.77;15.95;;;;;;;12.71;100.00;101439.84;4970268;28;20053;-91
2022/07/01 04:06:49;;;;;;;23.00;16.15;;;;;;;12.68;100.00;101433.78;4968389;28;20450;-90
2022/07/01 04:09:16;;;;;;;24.42;16.70;;;;;;;12.69;100.00;101435.50;4970903;28;20054;-90
2022/07/01 04:11:44;;;;;;;21.90;15.95;;;;;;;12.61;100.00;101416.31;4980157;28;20429;-90
2022/07/01 04:14:09;;;;;;;24.85;17.05;;;;;;;12.59;100.00;101424.44;4968143;28;20412;-89
2022/07/01 04:16:35;;;;;;;26.15;17.45;;;;;;;12.67;100.00;101448.09;4962940;28;20028;-90
2022/07/01 04:19:00;;;;;;;26.10;16.05;;;;;;;12.67;100.00;101448.94;4965073;28;20059;-90
2022/07/01 04:24:10;;;;;;;22.95;16.60;;;;;;;12.64;100.00;101429.53;4968049;28;20117;-90
2022/07/01 04:26:35;;;;;;;20.35;14.55;;;;;;;12.65;100.00;101433.94;4969664;28;20027;-90
2022/07/01 04:29:01;;;;;;;19.65;13.75;;;;;;;12.67;100.00;101440.06;4968013;28;20018;-89
2022/07/01 04:31:26;;;;;;;24.25;15.23;;;;;;;12.66;100.00;101431.16;4971526;28;20026;-90
2022/07/01 04:33:52;;;;;;;24.73;14.27;;;;;;;12.70;100.00;101442.56;4968301;28;20133;-89
2022/07/01 04:36:17;;;;;;;20.63;13.95;;;;;;;12.78;100.00;101451.06;4970678;28;20053;-90
2022/07/01 04:38:43;;;;;;;19.17;13.27;;;;;;;12.79;100.00;101450.13;4965765;28;20035;-89
2022/07/01 04:43:52;;;;;;;19.75;13.27;;;;;;;12.83;100.00;101462.41;4969382;28;20066;-91
2022/07/01 04:46:17;;;;;;;22.13;13.55;;;;;;;12.85;100.00;101460.50;4964628;28;20027;-92
2022/07/01 04:48:43;;;;;;;21.52;13.90;;;;;;;12.96;99.91;101460.84;4964771;28;20045;-90
2022/07/01 04:51:08;;;;;;;19.23;12.88;;;;;;;12.92;100.00;101453.91;4966901;28;20123;-90
2022/07/01 04:53:34;;;;;;;19.17;13.20;;;;;;;12.94;98.99;101461.84;4983849;28;20026;-90
2022/07/01 04:55:59;;;;;;;20.30;13.32;;;;;;;12.84;99.90;101448.09;4963485;28;20027;-90
2022/07/01 04:58:25;;;;;;;21.05;13.23;;;;;;;12.92;100.00;101456.59;4967210;28;20046;-90
2022/07/01 05:00:51;;;;;;;19.15;12.70;;;;;;;12.97;99.90;101453.69;4969606;28;20023;-91
2022/07/01 05:03:16;;;;;;;17.40;12.20;;;;;;;12.93;99.02;101446.75;4971007;28;20433;-91
2022/07/01 05:05:42;;;;;;;17.80;12.23;;;;;;;13.06;99.05;101473.72;4970290;28;20031;-88
2022/07/01 05:08:07;;;;;;;17.10;11.63;;;;;;;13.06;98.20;101468.38;4971627;28;20034;-91
2022/07/01 05:10:32;;;;;;;20.02;12.40;;;;;;;13.11;98.93;101475.19;4967659;28;20027;-90
2022/07/01 05:12:58;;;;;;;18.13;11.57;;;;;;;13.20;97.85;101473.84;4960855;28;20034;-91
2022/07/01 05:15:23;;;;;;;18.55;11.85;;;;;;;13.30;97.16;101475.16;4970368;28;20062;-91
2022/07/01 05:23:16;;;;;;;17.27;11.02;;;;;;;13.29;96.17;101440.47;4971491;28;20104;-90
2022/07/01 05:25:42;;;;;;;14.88;11.35;;;;;;;13.37;96.64;101460.50;4969534;28;20026;-90
2022/07/01 05:28:07;;;;;;;17.30;10.85;;;;;;;13.38;96.76;101462.25;4968680;28;20037;-90
2022/07/01 05:30:32;;;;;;;17.98;11.38;;;;;;;13.39;96.27;101463.13;4968560;28;20035;-90
2022/07/01 05:32:58;;;;;;;16.95;10.77;;;;;;;13.38;96.06;101467.59;4967536;28;20184;-90
2022/07/01 05:35:23;;;;;;;17.60;10.73;;;;;;;13.42;96.06;101455.81;4965910;28;20062;-91
2022/07/01 05:37:48;;;;;;;15.30;10.68;;;;;;;13.42;95.80;101446.91;4968643;28;20030;-91
2022/07/01 05:40:14;;;;;;;15.27;11.23;;;;;;;13.45;95.23;101452.06;4968861;28;20023;-89
2022/07/01 05:42:39;;;;;;;14.13;10.50;;;;;;;13.41;95.13;101453.19;4965814;28;20049;-90
2022/07/01 05:45:05;;;;;;;15.50;10.90;;;;;;;13.38;96.12;101450.69;4966473;28;20042;-92
2022/07/01 05:47:30;;;;;;;17.02;12.05;;;;;;;13.45;94.87;101450.25;4967594;28;20118;-90
2022/07/01 05:49:55;;;;;;;17.83;11.35;;;;;;;13.44;94.77;101445.88;4966365;28;20043;-90
2022/07/01 05:52:20;;;;;;;15.13;11.80;;;;;;;13.54;94.79;101467.63;4964612;28;20109;-91
2022/07/01 05:54:46;;;;;;;15.70;11.65;;;;;;;13.60;94.34;101458.44;4971827;28;20037;-88
2022/07/01 05:57:11;;;;;;;15.98;11.27;;;;;;;13.82;95.04;101463.47;4962953;28;20027;-88
2022/07/01 05:59:36;;;;;;;18.67;11.73;;;;;;;14.14;95.63;101461.72;4967440;28;20035;-89
2022/07/01 06:02:02;;;;;;;14.20;10.88;;;;;;;14.34;93.17;101456.09;4970485;28;20026;-86
2022/07/01 06:04:28;;;;;;;15.40;11.55;;;;;;;14.43;93.10;101460.06;4970009;28;20125;-89
2022/07/01 06:06:53;;;;;;;16.27;10.40;;;;;;;14.38;91.25;101464.78;4972130;28;20134;-89
2022/07/01 06:09:18;;;;;;;14.68;9.98;;;;;;;14.18;91.05;101447.22;4971547;28;20484;-89
2022/07/01 06:11:44;;;;;;;16.40;10.32;;;;;;;14.27;91.03;101467.25;4978426;28;20026;-88
2022/07/01 06:14:09;;;;;;;13.63;9.18;;;;;;;14.18;89.53;101473.97;4978251;28;20062;-88
2022/07/01 06:16:34;;;;;;;16.40;10.55;;;;;;;14.17;90.78;101473.13;4976902;28;20027;-88
2022/07/01 06:18:59;;;;;;;15.32;9.90;;;;;;;14.24;88.88;101467.41;4976208;28;20122;-88
2022/07/01 06:21:25;;;;;;;14.68;9.73;;;;;;;14.37;90.05;101463.06;4978029;28;20026;-88
2022/07/01 06:23:50;;;;;;;12.38;9.02;;;;;;;14.54;89.50;101467.50;4962950;28;20023;-88
2022/07/01 06:26:15;;;;;;;16.08;9.13;;;;;;;14.40;87.92;101457.56;4964777;28;20515;-91
2022/07/01 06:28:41;;;;;;;13.05;8.82;;;;;;;14.42;89.14;101461.00;4960824;28;20031;-90
2022/07/01 06:31:07;;;;;;;11.32;8.23;;;;;;;14.55;89.20;101456.72;4966764;28;20118;-89
2022/07/01 06:33:33;;;;;;;12.02;8.48;;;;;;;14.61;87.71;101448.31;4964737;28;20046;-89
2022/07/01 06:35:58;;;;;;;13.82;8.88;;;;;;;14.61;86.70;101460.84;4973523;28;20041;-90
2022/07/01 06:38:24;;;;;;;10.95;8.68;;;;;;;14.63;87.17;101464.28;4979493;28;20041;-88
2022/07/01 06:43:34;;;;;;;;;;;;;;;15.02;87.23;101462.91;4971241;28;20503;-90
2022/07/01 06:46:00;;;;;;;12.07;7.82;;;;;;;15.02;83.16;101450.38;4969113;28;19972;-89
2022/07/01 06:48:25;;;;;;;11.88;7.50;;;;;;;15.09;83.48;101451.75;4972899;28;20047;-88
2022/07/01 06:50:50;;;;;;;9.90;6.68;;;;;;;15.33;83.53;101453.88;4971933;28;20042;-88
2022/07/01 06:53:15;;;;;;;9.57;6.70;;;;;;;15.47;80.40;101461.06;4970937;28;20041;-88
2022/07/01 06:55:41;;;;;;;9.88;6.30;;;;;;;15.55;81.93;101448.03;4963871;28;20547;-93
2022/07/01 06:58:07;;;;;;;10.27;6.20;;;;;;;15.73;80.20;101452.31;4985493;28;20026;-91
2022/07/01 07:00:32;;;;;;;9.93;5.57;;;;;;;15.88;77.37;101466.56;4970290;28;20150;-91
2022/07/01 07:02:57;;;;;;;9.35;5.93;;;;;;;15.86;78.51;101444.34;4965065;28;20121;-91
2022/07/01 07:05:23;;;;;;;7.50;5.35;;;;;;;16.19;78.96;101460.13;4969789;28;20038;-89
2022/07/01 07:07:48;;;;;;;9.23;5.22;;;;;;;16.52;78.02;101467.81;4968897;28;20516;-89
2022/07/01 07:10:13;;;;;;;8.13;4.40;;;;;;;16.71;74.04;101472.81;4972991;28;20037;-87
2022/07/01 07:12:39;;;;;;;8.93;5.43;;;;;;;16.68;73.19;101489.16;4969368;28;20046;-87
2022/07/01 07:15:05;;;;;;;7.53;4.20;;;;;;;16.52;73.17;101505.44;4970795;28;20023;-89
2022/07/01 07:17:30;;;;;;;7.78;4.38;;;;;;;16.15;73.26;101482.78;4965031;28;20143;-88
2022/07/01 07:19:56;;;;;;;9.10;4.97;;;;;;;15.97;75.19;101490.19;4972772;28;20355;-88
2022/07/01 07:22:22;;;;;;;12.02;5.93;;;;;;;16.00;75.31;101487.28;4971007;28;20042;-87
2022/07/01 07:24:47;;;;;;;10.15;5.35;;;;;;;16.20;75.14;101496.75;4968084;28;20066;-89
2022/07/01 07:27:12;;;;;;;7.20;4.38;;;;;;;16.35;73.82;101485.03;4970331;28;20069;-87
2022/07/01 07:29:39;;;;;;;9.57;3.97;;;;;;;16.73;74.33;101484.38;4972975;28;20580;-87
2022/07/01 07:32:04;;;;;;;5.57;3.45;;;;;;;17.14;71.39;101504.94;4968032;28;20031;-88
2022/07/01 07:34:29;;;;;;;7.47;3.40;;;;;;;17.23;70.05;101496.22;4968028;28;20041;-84
2022/07/01 07:36:55;;;;;;;5.38;2.85;;;;;;;17.29;66.95;101501.19;4969196;28;20027;-83
2022/07/01 07:39:20;;;;;;;9.75;3.10;;;;;;;17.28;68.09;101510.22;4971365;28;20099;-84
2022/07/01 07:41:46;;;;;;;4.43;2.65;;;;;;;17.22;66.29;101505.25;4989393;28;20034;-84
2022/07/01 07:44:11;;;;;;;4.80;2.33;;;;;;;17.27;65.23;101524.66;4988164;28;20038;-84
2022/07/01 07:46:36;;;;;;;4.47;2.42;;;;;;;17.22;66.07;101523.22;4976187;28;20464;-85
2022/07/01 07:49:01;;;;;;;5.70;2.97;;;;;;;17.37;65.37;101514.97;4974502;28;20051;-84
2022/07/01 07:51:27;;;;;;;5.35;2.10;;;;;;;17.85;60.59;101507.19;4987566;28;20492;-84
2022/07/01 07:53:52;;;;;;;5.40;2.97;;;;;;;18.63;61.34;101514.97;4978728;28;20030;-84
2022/07/01 07:56:17;;;;;;;4.30;2.40;;;;;;;19.20;59.25;101520.66;4972523;28;20023;-84
2022/07/01 07:58:43;;;;;;;4.32;2.92;;;;;;;19.92;56.33;101525.88;4967684;28;20090;-84
2022/07/01 08:01:09;;;;;;;5.63;2.22;;;;;;;20.55;54.53;101518.97;4970399;28;20038;-84
2022/07/01 08:03:36;;;;;;;4.55;2.00;;;;;;;20.71;53.03;101522.13;4954623;28;20609;-81
2022/07/01 08:06:03;;;;;;;4.35;1.42;;;;;;;20.85;52.39;101515.56;4972286;28;20119;-82
2022/07/01 08:08:32;;;;;;;2.75;1.30;;;;;;;21.40;49.90;101524.44;4968320;28;20122;-84
2022/07/01 08:10:59;;;;;;;4.40;1.70;;;;;;;21.95;49.82;101543.22;4966917;28;20030;-83
2022/07/01 08:13:24;;;;;;;3.95;1.40;;;;;;;22.27;46.82;101522.22;4970931;28;20027;-83
2022/07/01 08:15:50;;;;;;;1.27;1.00;;;;;;;22.81;46.20;101529.06;4973613;28;20515;-88
2022/07/01 08:18:15;;;;;;;3.65;1.20;;;;;;;23.41;42.92;101537.13;4970008;28;20425;-89
2022/07/01 08:20:40;;;;;;;2.40;1.02;;;;;;;23.59;44.76;101529.09;4975255;28;20069;-88
2022/07/01 08:23:06;;;;;;;3.53;1.60;;;;;;;23.44;43.26;101544.97;4977798;28;20226;-89
2022/07/01 08:25:31;;;;;;;2.65;1.27;;;;;;;23.52;42.33;101566.00;4973134;28;20468;-88
2022/07/01 08:27:56;;;;;;;3.65;1.30;;;;;;;24.05;42.74;101554.63;4974217;28;20054;-88
2022/07/01 08:30:22;;;;;;;3.47;1.10;;;;;;;24.59;42.08;101536.63;4980107;28;20043;-89
2022/07/01 08:32:47;;;;;;;2.97;1.30;;;;;;;24.67;42.62;101544.91;4983355;28;20033;-89
2022/07/01 08:35:12;;;;;;;3.70;1.50;;;;;;;25.14;40.04;101546.59;4983363;28;20094;-88
2022/07/01 08:37:38;;;;;;;3.85;1.17;;;;;;;25.30;38.25;101550.31;4984255;28;20027;-89
2022/07/01 08:40:03;;;;;;;2.55;0.98;;;;;;;25.40;38.93;101554.81;4978683;28;20030;-89
2022/07/01 08:42:29;;;;;;;2.05;1.00;;;;;;;25.98;37.79;101555.09;4977389;28;20066;-88
2022/07/01 08:44:54;;;;;;;2.00;1.17;;;;;;;26.19;37.76;101562.03;4972335;28;20032;-87
2022/07/01 08:47:19;;;;;;;2.95;1.15;;;;;;;26.49;36.64;101557.94;4973180;28;20038;-88
2022/07/01 08:49:45;;;;;;;4.93;1.10;;;;;;;26.50;36.37;101554.19;4984678;28;20058;-88
2022/07/01 08:52:10;;;;;;;2.85;0.90;;;;;;;26.38;37.02;101558.19;4965209;28;20037;-88
2022/07/01 08:54:38;;;;;;;4.50;1.10;;;;;;;27.15;35.23;101569.91;4971240;28;20031;-87
2022/07/01 08:57:04;;;;;;;3.25;0.90;;;;;;;27.49;35.41;101573.34;4962837;28;20393;-89
2022/07/01 08:59:30;;;;;;;3.33;1.33;;;;;;;27.72;34.60;101578.13;4956010;28;20572;-87
2022/07/01 09:01:58;;;;;;;3.03;1.42;;;;;;;27.49;33.60;101588.91;4965972;28;20038;-89
2022/07/01 09:04:24;;;;;;;5.60;1.40;;;;;;;27.48;34.13;101579.84;4960058;28;20069;-92
2022/07/01 09:06:50;;;;;;;2.70;1.20;;;;;;;27.44;33.80;101577.63;4967236;28;20062;-89
2022/07/01 09:09:19;;;;;;;3.03;1.20;;;;;;;27.07;33.99;101584.38;4953181;28;20038;-89
2022/07/01 09:11:53;;;;;;;4.38;1.70;;;;;;;27.13;34.60;101580.16;4968442;28;20090;-90
2022/07/01 09:14:22;;;;;;;2.95;1.50;;;;;;;26.65;33.87;101579.00;4966798;28;20061;-91
2022/07/01 09:16:50;;;;;;;3.00;1.58;;;;;;;25.65;36.36;101564.03;4959024;28;20532;-90
2022/07/01 09:19:16;;;;;;;2.80;1.13;;;;;;;25.68;35.76;101583.66;4969023;28;20041;-88
2022/07/01 09:21:42;;;;;;;3.15;1.40;;;;;;;25.09;35.07;101596.09;4967967;28;20114;-90
2022/07/01 09:24:32;;;;;;;3.42;1.38;;;;;;;24.37;39.20;101589.56;4965766;28;20109;-90
2022/07/01 09:26:57;;;;;;;3.88;1.50;;;;;;;25.51;35.42;101596.31;4966193;28;20035;-90
2022/07/01 09:29:31;;;;;;;4.70;1.20;;;;;;;25.64;36.43;101598.63;4966404;28;20109;-89
2022/07/01 09:31:58;;;;;;;4.88;1.42;;;;;;;25.69;35.46;101589.97;4970112;28;20084;-90
2022/07/01 09:34:24;;;;;;;4.72;1.15;;;;;;;26.92;33.79;101592.41;4972139;28;20437;-90
2022/07/01 09:36:54;;;;;;;1.95;0.95;;;;;;;26.98;31.63;101597.19;4973469;28;20033;-91
2022/07/01 09:39:19;;;;;;;2.15;1.10;;;;;;;26.63;33.26;101586.47;4986949;28;20109;-86
2022/07/01 09:41:44;;;;;;;2.97;1.23;;;;;;;27.31;31.69;101589.94;4975447;28;20142;-88
2022/07/01 09:44:10;;;;;;;2.45;1.10;;;;;;;28.14;31.97;101599.81;4972941;28;20062;-88
2022/07/01 09:46:35;;;;;;;5.43;2.88;;;;;;;29.35;30.00;101587.63;4975723;28;20035;-87
2022/07/01 09:49:02;;;;;;;3.67;1.42;;;;;;;29.52;27.07;101600.16;4974059;28;20047;-87
2022/07/01 09:51:28;;;;;;;2.33;1.17;;;;;;;28.79;28.94;101602.31;4970905;28;20034;-87
2022/07/01 09:53:56;;;;;;;2.67;1.00;;;;;;;29.32;29.31;101609.91;4967725;28;20157;-86
2022/07/01 09:56:22;;;;;;;2.30;1.20;;;;;;;30.11;28.48;101607.69;4969773;28;20492;-87
2022/07/01 09:58:47;;;;;;;39.47;3.78;;;;;;;30.29;27.34;101605.44;4971148;28;20031;-88
2022/07/01 10:01:15;;;;;;;3.25;1.10;;;;;;;30.82;26.54;101600.69;4977032;28;20089;-87
2022/07/01 10:03:41;;;;;;;2.95;0.90;;;;;;;31.45;27.48;101599.06;4965399;28;20074;-86
2022/07/01 10:06:10;;;;;;;3.28;1.17;;;;;;;31.78;24.93;101603.19;4987821;28;20543;-87
2022/07/01 10:09:03;;;;;;;4.20;0.90;;;;;;;32.28;26.14;101626.88;4967538;28;20027;-86
2022/07/01 10:11:47;;;;;;;;;;;;;;;32.83;27.66;101622.28;4989553;28;20090;-87
2022/07/01 10:14:14;;;;;;;2.25;0.88;;;;;;;32.52;25.87;101621.91;4973938;28;19977;-86
2022/07/01 10:16:40;;;;;;;1.83;0.90;;;;;;;32.15;23.39;101635.88;4983636;28;20737;-85
2022/07/01 10:19:20;;;;;;;3.33;1.00;;;;;;;32.54;26.37;101637.22;4972305;28;20038;-86
2022/07/01 10:21:45;;;;;;;3.00;0.85;;;;;;;32.65;23.36;101644.06;4972365;28;20473;-85
2022/07/01 10:24:13;;;;;;;2.47;0.93;;;;;;;32.52;23.29;101647.56;4971266;28;20054;-86
2022/07/01 10:26:38;;;;;;;4.78;1.08;;;;;;;30.54;27.01;101638.97;4972074;28;20027;-86
2022/07/01 10:29:03;;;;;;;2.42;1.15;;;;;;;29.65;26.83;101643.47;4969317;28;20027;-86
2022/07/01 10:31:37;;;;;;;3.92;1.40;;;;;;;30.89;27.51;101648.38;4969318;28;20516;-86
2022/07/01 10:34:04;;;;;;;2.50;0.70;;;;;;;31.69;25.35;101641.00;4969402;28;20038;-85
2022/07/01 10:36:34;;;;;;;1.98;0.90;;;;;;;29.43;26.66;101640.50;4975818;28;20435;-88
2022/07/01 10:39:09;;;;;;;3.10;1.30;;;;;;;27.27;30.78;101654.16;4988160;28;20423;-86
2022/07/01 10:41:35;;;;;;;2.63;0.80;;;;;;;27.72;30.81;101643.78;4965571;28;20065;-87
2022/07/01 10:44:09;;;;;;;2.08;1.00;;;;;;;27.55;31.68;101631.97;4970472;28;20034;-88
2022/07/01 10:46:56;;;;;;;2.35;1.10;;;;;;;27.76;31.18;101634.25;4970995;28;20089;-86
2022/07/01 10:49:37;;;;;;;3.20;0.90;;;;;;;26.10;32.80;101640.25;4970381;28;20115;-84
2022/07/01 10:52:27;;;;;;;4.85;1.00;;;;;;;25.33;34.78;101642.66;4970983;28;20027;-86
2022/07/01 10:54:55;;;;;;;4.03;0.90;;;;;;;26.08;33.19;101634.97;4968758;28;20133;-87
2022/07/01 10:57:34;;;;;;;2.67;0.82;;;;;;;27.33;32.02;101628.00;4966543;28;20340;-87
2022/07/01 10:59:59;;;;;;;2.15;0.60;;;;;;;29.09;28.77;101635.41;4968815;28;20523;-87
2022/07/01 11:02:36;;;;;;;1.90;0.70;;;;;;;30.99;27.74;101632.41;4967855;28;20042;-87
2022/07/01 11:05:14;;;;;;;1.88;0.80;;;;;;;31.20;28.23;101628.00;4971939;28;20066;-86
2022/07/01 11:07:47;;;;;;;2.20;0.65;;;;;;;31.87;26.11;101624.88;4962188;28;20357;-87
2022/07/01 11:10:16;;;;;;;1.55;0.60;;;;;;;32.53;24.64;101634.66;4976441;28;20050;-86
2022/07/01 11:12:43;;;;;;;2.45;0.75;;;;;;;33.61;23.88;101627.41;4966695;28;20027;-87
2022/07/01 11:15:10;;;;;;;1.23;0.80;;;;;;;34.08;23.00;101623.59;4971604;28;20476;-87
2022/07/01 11:17:42;;;;;;;1.70;0.60;;;;;;;34.19;23.01;101627.59;4968203;28;20556;-86
2022/07/01 11:20:07;;;;;;;2.50;1.23;;;;;;;33.77;22.57;101620.59;4967558;28;20019;-86
2022/07/01 11:22:34;;;;;;;2.28;0.63;;;;;;;34.17;22.01;101615.94;4967868;28;20230;-86